sensor_id;sensor_type;location;lat;lon;timestamp;pressure;altitude;pressure_sealevel;temperature
4421;BMP180;11824;51.178;13.546;2023-04-02T00:01:40;99414.00;;;7.50
4421;BMP180;11824;51.178;13.546;2023-04-02T00:04:14;99414.00;;;7.50
4421;BMP180;11824;51.178;13.546;2023-04-02T00:06:49;99413.00;;;7.40
4421;BMP180;11824;51.178;13.546;2023-04-02T00:09:30;99422.00;;;7.40
4421;BMP180;11824;51.178;13.546;2023-04-02T00:12:09;99441.00;;;7.40
4421;BMP180;11824;51.178;13.546;2023-04-02T00:14:46;99427.00;;;7.30
4421;BMP180;11824;51.178;13.546;2023-04-02T00:17:14;99431.00;;;7.30
4421;BMP180;11824;51.178;13.546;2023-04-02T00:19:45;99436.00;;;7.30
4421;BMP180;11824;51.178;13.546;2023-04-02T00:22:21;99429.00;;;7.30
4421;BMP180;11824;51.178;13.546;2023-04-02T00:24:51;99443.00;;;7.20
4421;BMP180;11824;51.178;13.546;2023-04-02T00:27:20;99443.00;;;7.20
4421;BMP180;11824;51.178;13.546;2023-04-02T00:29:48;99450.00;;;7.20
4421;BMP180;11824;51.178;13.546;2023-04-02T00:32:22;99468.00;;;7.10
4421;BMP180;11824;51.178;13.546;2023-04-02T00:34:51;99469.00;;;7.10
4421;BMP180;11824;51.178;13.546;2023-04-02T00:37:22;99467.00;;;7.00
4421;BMP180;11824;51.178;13.546;2023-04-02T00:39:54;99483.00;;;7.00
4421;BMP180;11824;51.178;13.546;2023-04-02T00:42:23;99470.00;;;6.90
4421;BMP180;11824;51.178;13.546;2023-04-02T00:44:53;99496.00;;;6.90
4421;BMP180;11824;51.178;13.546;2023-04-02T00:47:23;99472.00;;;6.90
4421;BMP180;11824;51.178;13.546;2023-04-02T00:49:57;99482.00;;;6.80
4421;BMP180;11824;51.178;13.546;2023-04-02T00:52:28;99482.00;;;6.80
4421;BMP180;11824;51.178;13.546;2023-04-02T00:55:02;99489.00;;;6.80
4421;BMP180;11824;51.178;13.546;2023-04-02T00:57:31;99496.00;;;6.80
4421;BMP180;11824;51.178;13.546;2023-04-02T01:00:02;99492.00;;;6.80
4421;BMP180;11824;51.178;13.546;2023-04-02T01:02:37;99500.00;;;6.80
4421;BMP180;11824;51.178;13.546;2023-04-02T01:05:21;99500.00;;;6.70
4421;BMP180;11824;51.178;13.546;2023-04-02T01:08:00;99506.00;;;6.70
4421;BMP180;11824;51.178;13.546;2023-04-02T01:10:41;99515.00;;;6.70
4421;BMP180;11824;51.178;13.546;2023-04-02T01:13:22;99529.00;;;6.60
4421;BMP180;11824;51.178;13.546;2023-04-02T01:15:54;99544.00;;;6.60
4421;BMP180;11824;51.178;13.546;2023-04-02T01:18:32;99531.00;;;6.60
4421;BMP180;11824;51.178;13.546;2023-04-02T01:24:05;99546.00;;;6.60
4421;BMP180;11824;51.178;13.546;2023-04-02T01:26:44;99539.00;;;6.60
4421;BMP180;11824;51.178;13.546;2023-04-02T01:29:14;99548.00;;;6.50
4421;BMP180;11824;51.178;13.546;2023-04-02T01:31:44;99557.00;;;6.50
4421;BMP180;11824;51.178;13.546;2023-04-02T01:34:14;99574.00;;;6.50
4421;BMP180;11824;51.178;13.546;2023-04-02T01:36:48;99577.00;;;6.50
4421;BMP180;11824;51.178;13.546;2023-04-02T01:39:27;99572.00;;;6.50
4421;BMP180;11824;51.178;13.546;2023-04-02T01:42:04;99587.00;;;6.50
4421;BMP180;11824;51.178;13.546;2023-04-02T01:44:40;99590.00;;;6.50
4421;BMP180;11824;51.178;13.546;2023-04-02T01:47:11;99608.00;;;6.40
4421;BMP180;11824;51.178;13.546;2023-04-02T01:49:40;99610.00;;;6.40
4421;BMP180;11824;51.178;13.546;2023-04-02T01:52:10;99599.00;;;6.30
4421;BMP180;11824;51.178;13.546;2023-04-02T01:54:39;99610.00;;;6.30
4421;BMP180;11824;51.178;13.546;2023-04-02T01:57:07;99620.00;;;6.30
4421;BMP180;11824;51.178;13.546;2023-04-02T01:59:36;99625.00;;;6.20
4421;BMP180;11824;51.178;13.546;2023-04-02T02:02:05;99629.00;;;6.20
4421;BMP180;11824;51.178;13.546;2023-04-02T02:04:33;99625.00;;;6.10
4421;BMP180;11824;51.178;13.546;2023-04-02T02:07:02;99629.00;;;6.10
4421;BMP180;11824;51.178;13.546;2023-04-02T02:09:32;99643.00;;;6.00
4421;BMP180;11824;51.178;13.546;2023-04-02T02:12:02;99646.00;;;6.00
4421;BMP180;11824;51.178;13.546;2023-04-02T02:14:31;99640.00;;;5.90
4421;BMP180;11824;51.178;13.546;2023-04-02T02:17:00;99657.00;;;5.90
4421;BMP180;11824;51.178;13.546;2023-04-02T02:19:30;99676.00;;;5.80
4421;BMP180;11824;51.178;13.546;2023-04-02T02:22:08;99655.00;;;5.80
4421;BMP180;11824;51.178;13.546;2023-04-02T02:24:37;99656.00;;;5.70
4421;BMP180;11824;51.178;13.546;2023-04-02T02:27:26;99666.00;;;5.70
4421;BMP180;11824;51.178;13.546;2023-04-02T02:30:03;99675.00;;;5.70
4421;BMP180;11824;51.178;13.546;2023-04-02T02:32:34;99684.00;;;5.70
4421;BMP180;11824;51.178;13.546;2023-04-02T02:35:11;99681.00;;;5.70
4421;BMP180;11824;51.178;13.546;2023-04-02T02:37:44;99688.00;;;5.70
4421;BMP180;11824;51.178;13.546;2023-04-02T02:40:16;99700.00;;;5.80
4421;BMP180;11824;51.178;13.546;2023-04-02T02:42:50;99702.00;;;5.70
4421;BMP180;11824;51.178;13.546;2023-04-02T02:45:21;99708.00;;;5.70
4421;BMP180;11824;51.178;13.546;2023-04-02T02:47:51;99718.00;;;5.70
4421;BMP180;11824;51.178;13.546;2023-04-02T02:50:22;99711.00;;;5.70
4421;BMP180;11824;51.178;13.546;2023-04-02T02:52:53;99717.00;;;5.70
4421;BMP180;11824;51.178;13.546;2023-04-02T02:55:23;99719.00;;;5.70
4421;BMP180;11824;51.178;13.546;2023-04-02T02:57:56;99726.00;;;5.70
4421;BMP180;11824;51.178;13.546;2023-04-02T03:00:25;99719.00;;;5.60
4421;BMP180;11824;51.178;13.546;2023-04-02T03:02:54;99733.00;;;5.60
4421;BMP180;11824;51.178;13.546;2023-04-02T03:05:25;99736.00;;;5.60
4421;BMP180;11824;51.178;13.546;2023-04-02T03:07:55;99733.00;;;5.60
4421;BMP180;11824;51.178;13.546;2023-04-02T03:10:28;99744.00;;;5.60
4421;BMP180;11824;51.178;13.546;2023-04-02T03:13:04;99746.00;;;5.60
4421;BMP180;11824;51.178;13.546;2023-04-02T03:15:39;99743.00;;;5.60
4421;BMP180;11824;51.178;13.546;2023-04-02T03:18:15;99763.00;;;5.60
4421;BMP180;11824;51.178;13.546;2023-04-02T03:20:48;99753.00;;;5.60
4421;BMP180;11824;51.178;13.546;2023-04-02T03:23:20;99774.00;;;5.50
4421;BMP180;11824;51.178;13.546;2023-04-02T03:25:53;99781.00;;;5.50
4421;BMP180;11824;51.178;13.546;2023-04-02T03:28:25;99774.00;;;5.40
4421;BMP180;11824;51.178;13.546;2023-04-02T03:30:56;99788.00;;;5.40
4421;BMP180;11824;51.178;13.546;2023-04-02T03:33:28;99790.00;;;5.40
4421;BMP180;11824;51.178;13.546;2023-04-02T03:36:00;99808.00;;;5.40
4421;BMP180;11824;51.178;13.546;2023-04-02T03:38:33;99798.00;;;5.30
4421;BMP180;11824;51.178;13.546;2023-04-02T03:41:06;99807.00;;;5.40
4421;BMP180;11824;51.178;13.546;2023-04-02T03:43:41;99807.00;;;5.30
4421;BMP180;11824;51.178;13.546;2023-04-02T03:46:25;99819.00;;;5.30
4421;BMP180;11824;51.178;13.546;2023-04-02T03:48:56;99828.00;;;5.30
4421;BMP180;11824;51.178;13.546;2023-04-02T03:51:29;99824.00;;;5.30
4421;BMP180;11824;51.178;13.546;2023-04-02T03:53:56;99837.00;;;5.30
4421;BMP180;11824;51.178;13.546;2023-04-02T03:56:28;99846.00;;;5.30
4421;BMP180;11824;51.178;13.546;2023-04-02T03:59:05;99849.00;;;5.30
4421;BMP180;11824;51.178;13.546;2023-04-02T04:01:41;99856.00;;;5.30
4421;BMP180;11824;51.178;13.546;2023-04-02T04:04:15;99859.00;;;5.30
4421;BMP180;11824;51.178;13.546;2023-04-02T04:06:44;99874.00;;;5.30
4421;BMP180;11824;51.178;13.546;2023-04-02T04:09:19;99862.00;;;5.20
4421;BMP180;11824;51.178;13.546;2023-04-02T04:11:52;99880.00;;;5.20
4421;BMP180;11824;51.178;13.546;2023-04-02T04:14:27;99886.00;;;5.20
4421;BMP180;11824;51.178;13.546;2023-04-02T04:17:00;99895.00;;;5.10
4421;BMP180;11824;51.178;13.546;2023-04-02T04:19:37;99896.00;;;5.10
4421;BMP180;11824;51.178;13.546;2023-04-02T04:22:10;99901.00;;;5.00
4421;BMP180;11824;51.178;13.546;2023-04-02T04:24:40;99910.00;;;5.00
4421;BMP180;11824;51.178;13.546;2023-04-02T04:27:17;99916.00;;;5.00
4421;BMP180;11824;51.178;13.546;2023-04-02T04:29:52;99921.00;;;4.90
4421;BMP180;11824;51.178;13.546;2023-04-02T04:32:26;99918.00;;;4.90
4421;BMP180;11824;51.178;13.546;2023-04-02T04:35:01;99929.00;;;4.80
4421;BMP180;11824;51.178;13.546;2023-04-02T04:37:34;99937.00;;;4.80
4421;BMP180;11824;51.178;13.546;2023-04-02T04:40:08;99932.00;;;4.80
4421;BMP180;11824;51.178;13.546;2023-04-02T04:42:40;99936.00;;;4.80
4421;BMP180;11824;51.178;13.546;2023-04-02T04:45:15;99948.00;;;4.80
4421;BMP180;11824;51.178;13.546;2023-04-02T04:47:52;99950.00;;;4.70
4421;BMP180;11824;51.178;13.546;2023-04-02T04:50:29;99960.00;;;4.70
4421;BMP180;11824;51.178;13.546;2023-04-02T04:52:57;99969.00;;;4.70
4421;BMP180;11824;51.178;13.546;2023-04-02T04:55:35;99986.00;;;4.70
4421;BMP180;11824;51.178;13.546;2023-04-02T04:58:10;99982.00;;;4.60
4421;BMP180;11824;51.178;13.546;2023-04-02T05:00:45;99978.00;;;4.60
4421;BMP180;11824;51.178;13.546;2023-04-02T05:03:20;99989.00;;;4.60
4421;BMP180;11824;51.178;13.546;2023-04-02T05:05:52;99999.00;;;4.50
4421;BMP180;11824;51.178;13.546;2023-04-02T05:08:23;99994.00;;;4.50
4421;BMP180;11824;51.178;13.546;2023-04-02T05:10:57;100006.00;;;4.40
4421;BMP180;11824;51.178;13.546;2023-04-02T05:13:31;100016.00;;;4.40
4421;BMP180;11824;51.178;13.546;2023-04-02T05:16:06;100037.00;;;4.40
4421;BMP180;11824;51.178;13.546;2023-04-02T05:18:40;100028.00;;;4.30
4421;BMP180;11824;51.178;13.546;2023-04-02T05:21:17;100036.00;;;4.20
4421;BMP180;11824;51.178;13.546;2023-04-02T05:23:47;100042.00;;;4.20
4421;BMP180;11824;51.178;13.546;2023-04-02T05:26:18;100049.00;;;4.20
4421;BMP180;11824;51.178;13.546;2023-04-02T05:28:53;100060.00;;;4.10
4421;BMP180;11824;51.178;13.546;2023-04-02T05:31:24;100069.00;;;4.10
4421;BMP180;11824;51.178;13.546;2023-04-02T05:33:54;100061.00;;;4.10
4421;BMP180;11824;51.178;13.546;2023-04-02T05:36:25;100066.00;;;4.10
4421;BMP180;11824;51.178;13.546;2023-04-02T05:38:54;100076.00;;;4.00
4421;BMP180;11824;51.178;13.546;2023-04-02T05:41:25;100082.00;;;4.00
4421;BMP180;11824;51.178;13.546;2023-04-02T05:44:01;100091.00;;;4.00
4421;BMP180;11824;51.178;13.546;2023-04-02T05:46:33;100090.00;;;4.00
4421;BMP180;11824;51.178;13.546;2023-04-02T05:49:04;100092.00;;;4.00
4421;BMP180;11824;51.178;13.546;2023-04-02T05:51:39;100107.00;;;4.00
4421;BMP180;11824;51.178;13.546;2023-04-02T05:54:18;100098.00;;;4.00
4421;BMP180;11824;51.178;13.546;2023-04-02T05:56:53;100112.00;;;4.00
4421;BMP180;11824;51.178;13.546;2023-04-02T05:59:23;100127.00;;;4.00
4421;BMP180;11824;51.178;13.546;2023-04-02T06:01:54;100121.00;;;4.00
4421;BMP180;11824;51.178;13.546;2023-04-02T06:04:27;100114.00;;;3.90
4421;BMP180;11824;51.178;13.546;2023-04-02T06:07:00;100135.00;;;3.90
4421;BMP180;11824;51.178;13.546;2023-04-02T06:09:36;100127.00;;;3.90
4421;BMP180;11824;51.178;13.546;2023-04-02T06:12:18;100142.00;;;3.90
4421;BMP180;11824;51.178;13.546;2023-04-02T06:14:49;100144.00;;;3.90
4421;BMP180;11824;51.178;13.546;2023-04-02T06:17:18;100149.00;;;3.90
4421;BMP180;11824;51.178;13.546;2023-04-02T06:19:46;100154.00;;;3.90
4421;BMP180;11824;51.178;13.546;2023-04-02T06:22:22;100154.00;;;3.90
4421;BMP180;11824;51.178;13.546;2023-04-02T06:24:54;100156.00;;;4.00
4421;BMP180;11824;51.178;13.546;2023-04-02T06:27:25;100160.00;;;4.00
4421;BMP180;11824;51.178;13.546;2023-04-02T06:29:56;100172.00;;;4.00
4421;BMP180;11824;51.178;13.546;2023-04-02T06:32:25;100181.00;;;4.10
4421;BMP180;11824;51.178;13.546;2023-04-02T06:34:53;100170.00;;;4.10
4421;BMP180;11824;51.178;13.546;2023-04-02T06:37:25;100177.00;;;4.10
4421;BMP180;11824;51.178;13.546;2023-04-02T06:39:54;100184.00;;;4.20
4421;BMP180;11824;51.178;13.546;2023-04-02T06:42:25;100193.00;;;4.20
4421;BMP180;11824;51.178;13.546;2023-04-02T06:44:54;100188.00;;;4.20
4421;BMP180;11824;51.178;13.546;2023-04-02T06:47:29;100200.00;;;4.20
4421;BMP180;11824;51.178;13.546;2023-04-02T06:50:03;100214.00;;;4.20
4421;BMP180;11824;51.178;13.546;2023-04-02T06:52:35;100207.00;;;4.20
4421;BMP180;11824;51.178;13.546;2023-04-02T06:55:23;100211.00;;;4.20
4421;BMP180;11824;51.178;13.546;2023-04-02T06:57:52;100233.00;;;4.20
4421;BMP180;11824;51.178;13.546;2023-04-02T07:00:31;100228.00;;;4.20
4421;BMP180;11824;51.178;13.546;2023-04-02T07:03:02;100233.00;;;4.20
4421;BMP180;11824;51.178;13.546;2023-04-02T07:05:31;100237.00;;;4.20
4421;BMP180;11824;51.178;13.546;2023-04-02T07:08:00;100248.00;;;4.10
4421;BMP180;11824;51.178;13.546;2023-04-02T07:10:27;100245.00;;;4.10
4421;BMP180;11824;51.178;13.546;2023-04-02T07:12:54;100248.00;;;4.10
4421;BMP180;11824;51.178;13.546;2023-04-02T07:15:22;100255.00;;;4.10
4421;BMP180;11824;51.178;13.546;2023-04-02T07:17:51;100257.00;;;4.10
4421;BMP180;11824;51.178;13.546;2023-04-02T07:20:25;100261.00;;;4.10
4421;BMP180;11824;51.178;13.546;2023-04-02T07:22:53;100262.00;;;4.10
4421;BMP180;11824;51.178;13.546;2023-04-02T07:25:21;100252.00;;;4.20
4421;BMP180;11824;51.178;13.546;2023-04-02T07:27:49;100271.00;;;4.20
4421;BMP180;11824;51.178;13.546;2023-04-02T07:30:17;100284.00;;;4.30
4421;BMP180;11824;51.178;13.546;2023-04-02T07:32:44;100284.00;;;4.30
4421;BMP180;11824;51.178;13.546;2023-04-02T07:35:12;100286.00;;;4.40
4421;BMP180;11824;51.178;13.546;2023-04-02T07:37:39;100278.00;;;4.40
4421;BMP180;11824;51.178;13.546;2023-04-02T07:40:15;100291.00;;;4.50
4421;BMP180;11824;51.178;13.546;2023-04-02T07:42:45;100299.00;;;4.60
4421;BMP180;11824;51.178;13.546;2023-04-02T07:45:12;100302.00;;;4.60
4421;BMP180;11824;51.178;13.546;2023-04-02T07:47:40;100309.00;;;4.60
4421;BMP180;11824;51.178;13.546;2023-04-02T07:50:08;100308.00;;;4.70
4421;BMP180;11824;51.178;13.546;2023-04-02T07:52:39;100311.00;;;4.70
4421;BMP180;11824;51.178;13.546;2023-04-02T07:55:08;100325.00;;;4.70
4421;BMP180;11824;51.178;13.546;2023-04-02T07:57:37;100317.00;;;4.70
4421;BMP180;11824;51.178;13.546;2023-04-02T08:00:10;100323.00;;;4.70
4421;BMP180;11824;51.178;13.546;2023-04-02T08:02:37;100346.00;;;4.70
4421;BMP180;11824;51.178;13.546;2023-04-02T08:05:05;100337.00;;;4.70
4421;BMP180;11824;51.178;13.546;2023-04-02T08:07:33;100355.00;;;4.70
4421;BMP180;11824;51.178;13.546;2023-04-02T08:10:01;100349.00;;;4.80
4421;BMP180;11824;51.178;13.546;2023-04-02T08:12:29;100353.00;;;4.80
4421;BMP180;11824;51.178;13.546;2023-04-02T08:14:57;100359.00;;;4.80
4421;BMP180;11824;51.178;13.546;2023-04-02T08:17:25;100352.00;;;4.80
4421;BMP180;11824;51.178;13.546;2023-04-02T08:19:57;100379.00;;;4.80
4421;BMP180;11824;51.178;13.546;2023-04-02T08:22:26;100381.00;;;4.80
4421;BMP180;11824;51.178;13.546;2023-04-02T08:24:54;100394.00;;;4.80
4421;BMP180;11824;51.178;13.546;2023-04-02T08:27:22;100386.00;;;4.80
4421;BMP180;11824;51.178;13.546;2023-04-02T08:29:49;100387.00;;;4.80
4421;BMP180;11824;51.178;13.546;2023-04-02T08:32:17;100393.00;;;4.70
4421;BMP180;11824;51.178;13.546;2023-04-02T08:34:45;100397.00;;;4.70
4421;BMP180;11824;51.178;13.546;2023-04-02T08:37:13;100407.00;;;4.70
4421;BMP180;11824;51.178;13.546;2023-04-02T08:39:40;100399.00;;;4.70
4421;BMP180;11824;51.178;13.546;2023-04-02T08:42:18;100401.00;;;4.70
4421;BMP180;11824;51.178;13.546;2023-04-02T08:44:54;100404.00;;;4.80
4421;BMP180;11824;51.178;13.546;2023-04-02T08:47:39;100411.00;;;4.80
4421;BMP180;11824;51.178;13.546;2023-04-02T08:50:14;100418.00;;;4.80
4421;BMP180;11824;51.178;13.546;2023-04-02T08:52:47;100429.00;;;4.80
4421;BMP180;11824;51.178;13.546;2023-04-02T08:55:19;100423.00;;;4.80
4421;BMP180;11824;51.178;13.546;2023-04-02T08:57:59;100430.00;;;4.80
4421;BMP180;11824;51.178;13.546;2023-04-02T09:00:34;100447.00;;;4.80
4421;BMP180;11824;51.178;13.546;2023-04-02T09:03:08;100443.00;;;4.80
4421;BMP180;11824;51.178;13.546;2023-04-02T09:05:40;100444.00;;;4.80
4421;BMP180;11824;51.178;13.546;2023-04-02T09:08:15;100443.00;;;4.90
4421;BMP180;11824;51.178;13.546;2023-04-02T09:10:50;100452.00;;;4.80
4421;BMP180;11824;51.178;13.546;2023-04-02T09:13:21;100446.00;;;4.90
4421;BMP180;11824;51.178;13.546;2023-04-02T09:15:50;100455.00;;;4.80
4421;BMP180;11824;51.178;13.546;2023-04-02T09:18:19;100458.00;;;4.80
4421;BMP180;11824;51.178;13.546;2023-04-02T09:20:48;100466.00;;;4.80
4421;BMP180;11824;51.178;13.546;2023-04-02T09:23:17;100467.00;;;4.80
4421;BMP180;11824;51.178;13.546;2023-04-02T09:25:47;100473.00;;;4.90
4421;BMP180;11824;51.178;13.546;2023-04-02T09:28:30;100478.00;;;4.90
4421;BMP180;11824;51.178;13.546;2023-04-02T09:31:04;100466.00;;;4.90
4421;BMP180;11824;51.178;13.546;2023-04-02T09:33:42;100479.00;;;5.00
4421;BMP180;11824;51.178;13.546;2023-04-02T09:36:24;100485.00;;;5.00
4421;BMP180;11824;51.178;13.546;2023-04-02T09:38:58;100479.00;;;5.00
4421;BMP180;11824;51.178;13.546;2023-04-02T09:41:28;100494.00;;;5.00
4421;BMP180;11824;51.178;13.546;2023-04-02T09:44:13;100509.00;;;5.00
4421;BMP180;11824;51.178;13.546;2023-04-02T09:46:49;100505.00;;;5.00
4421;BMP180;11824;51.178;13.546;2023-04-02T09:49:20;100513.00;;;5.00
4421;BMP180;11824;51.178;13.546;2023-04-02T09:52:06;100514.00;;;5.00
4421;BMP180;11824;51.178;13.546;2023-04-02T09:54:34;100527.00;;;5.00
4421;BMP180;11824;51.178;13.546;2023-04-02T09:57:18;100523.00;;;5.00
4421;BMP180;11824;51.178;13.546;2023-04-02T10:00:09;100528.00;;;5.10
4421;BMP180;11824;51.178;13.546;2023-04-02T10:03:03;100527.00;;;5.10
4421;BMP180;11824;51.178;13.546;2023-04-02T10:05:32;100533.00;;;5.00
4421;BMP180;11824;51.178;13.546;2023-04-02T10:08:17;100534.00;;;5.00
4421;BMP180;11824;51.178;13.546;2023-04-02T10:10:47;100540.00;;;5.00
4421;BMP180;11824;51.178;13.546;2023-04-02T10:13:19;100560.00;;;5.10
4421;BMP180;11824;51.178;13.546;2023-04-02T10:15:52;100543.00;;;5.10
4421;BMP180;11824;51.178;13.546;2023-04-02T10:18:28;100556.00;;;5.10
4421;BMP180;11824;51.178;13.546;2023-04-02T10:20:57;100552.00;;;5.10
4421;BMP180;11824;51.178;13.546;2023-04-02T10:23:28;100559.00;;;5.10
4421;BMP180;11824;51.178;13.546;2023-04-02T10:26:05;100574.00;;;5.20
4421;BMP180;11824;51.178;13.546;2023-04-02T10:28:46;100570.00;;;5.20
4421;BMP180;11824;51.178;13.546;2023-04-02T10:31:20;100570.00;;;5.20
4421;BMP180;11824;51.178;13.546;2023-04-02T10:33:53;100572.00;;;5.30
4421;BMP180;11824;51.178;13.546;2023-04-02T10:36:37;100579.00;;;5.30
4421;BMP180;11824;51.178;13.546;2023-04-02T10:39:11;100580.00;;;5.30
4421;BMP180;11824;51.178;13.546;2023-04-02T10:41:47;100601.00;;;5.40
4421;BMP180;11824;51.178;13.546;2023-04-02T10:44:33;100587.00;;;5.40
4421;BMP180;11824;51.178;13.546;2023-04-02T10:47:16;100602.00;;;5.40
4421;BMP180;11824;51.178;13.546;2023-04-02T10:49:52;100609.00;;;5.50
4421;BMP180;11824;51.178;13.546;2023-04-02T10:52:26;100601.00;;;5.50
4421;BMP180;11824;51.178;13.546;2023-04-02T10:54:57;100609.00;;;5.60
4421;BMP180;11824;51.178;13.546;2023-04-02T10:57:33;100621.00;;;5.60
4421;BMP180;11824;51.178;13.546;2023-04-02T11:00:13;100624.00;;;5.70
4421;BMP180;11824;51.178;13.546;2023-04-02T11:02:47;100620.00;;;5.70
4421;BMP180;11824;51.178;13.546;2023-04-02T11:05:25;100620.00;;;5.70
4421;BMP180;11824;51.178;13.546;2023-04-02T11:08:01;100619.00;;;5.70
4421;BMP180;11824;51.178;13.546;2023-04-02T11:10:33;100631.00;;;5.80
4421;BMP180;11824;51.178;13.546;2023-04-02T11:13:07;100622.00;;;5.80
4421;BMP180;11824;51.178;13.546;2023-04-02T11:15:37;100638.00;;;5.80
4421;BMP180;11824;51.178;13.546;2023-04-02T11:18:05;100636.00;;;5.80
4421;BMP180;11824;51.178;13.546;2023-04-02T11:21:04;100644.00;;;5.90
4421;BMP180;11824;51.178;13.546;2023-04-02T11:23:52;100645.00;;;5.90
4421;BMP180;11824;51.178;13.546;2023-04-02T11:26:36;100645.00;;;5.90
4421;BMP180;11824;51.178;13.546;2023-04-02T11:32:33;100654.00;;;6.00
4421;BMP180;11824;51.178;13.546;2023-04-02T11:35:35;100659.00;;;6.10
4421;BMP180;11824;51.178;13.546;2023-04-02T11:41:09;100659.00;;;6.10
4421;BMP180;11824;51.178;13.546;2023-04-02T11:43:54;100666.00;;;6.20
4421;BMP180;11824;51.178;13.546;2023-04-02T11:46:41;100667.00;;;6.40
4421;BMP180;11824;51.178;13.546;2023-04-02T11:49:34;100675.00;;;6.50
4421;BMP180;11824;51.178;13.546;2023-04-02T11:52:03;100679.00;;;6.50
4421;BMP180;11824;51.178;13.546;2023-04-02T11:54:39;100682.00;;;6.60
4421;BMP180;11824;51.178;13.546;2023-04-02T11:57:16;100678.00;;;6.60
4421;BMP180;11824;51.178;13.546;2023-04-02T11:59:58;100687.00;;;6.60
4421;BMP180;11824;51.178;13.546;2023-04-02T12:02:35;100694.00;;;6.70
4421;BMP180;11824;51.178;13.546;2023-04-02T12:05:14;100687.00;;;6.70
4421;BMP180;11824;51.178;13.546;2023-04-02T12:08:00;100696.00;;;6.70
4421;BMP180;11824;51.178;13.546;2023-04-02T12:10:32;100705.00;;;6.80
4421;BMP180;11824;51.178;13.546;2023-04-02T12:13:00;100697.00;;;6.90
4421;BMP180;11824;51.178;13.546;2023-04-02T12:15:41;100700.00;;;7.00
4421;BMP180;11824;51.178;13.546;2023-04-02T12:18:15;100706.00;;;7.00
4421;BMP180;11824;51.178;13.546;2023-04-02T12:20:47;100695.00;;;7.00
4421;BMP180;11824;51.178;13.546;2023-04-02T12:23:21;100701.00;;;7.00
4421;BMP180;11824;51.178;13.546;2023-04-02T12:25:57;100713.00;;;7.00
4421;BMP180;11824;51.178;13.546;2023-04-02T12:28:26;100715.00;;;7.00
4421;BMP180;11824;51.178;13.546;2023-04-02T12:31:03;100717.00;;;7.10
4421;BMP180;11824;51.178;13.546;2023-04-02T12:33:33;100729.00;;;7.10
4421;BMP180;11824;51.178;13.546;2023-04-02T12:36:04;100725.00;;;7.10
4421;BMP180;11824;51.178;13.546;2023-04-02T12:38:34;100736.00;;;7.20
4421;BMP180;11824;51.178;13.546;2023-04-02T12:41:04;100734.00;;;7.20
4421;BMP180;11824;51.178;13.546;2023-04-02T12:43:33;100736.00;;;7.30
4421;BMP180;11824;51.178;13.546;2023-04-02T12:46:03;100732.00;;;7.40
4421;BMP180;11824;51.178;13.546;2023-04-02T12:48:32;100734.00;;;7.40
4421;BMP180;11824;51.178;13.546;2023-04-02T12:51:01;100736.00;;;7.50
4421;BMP180;11824;51.178;13.546;2023-04-02T12:53:31;100742.00;;;7.60
4421;BMP180;11824;51.178;13.546;2023-04-02T12:56:00;100728.00;;;7.60
4421;BMP180;11824;51.178;13.546;2023-04-02T12:58:29;100728.00;;;7.70
4421;BMP180;11824;51.178;13.546;2023-04-02T13:01:15;100751.00;;;7.80
4421;BMP180;11824;51.178;13.546;2023-04-02T13:03:57;100747.00;;;7.70
4421;BMP180;11824;51.178;13.546;2023-04-02T13:06:25;100747.00;;;7.70
4421;BMP180;11824;51.178;13.546;2023-04-02T13:08:53;100760.00;;;7.60
4421;BMP180;11824;51.178;13.546;2023-04-02T13:11:21;100768.00;;;7.60
4421;BMP180;11824;51.178;13.546;2023-04-02T13:13:49;100766.00;;;7.60
4421;BMP180;11824;51.178;13.546;2023-04-02T13:16:32;100771.00;;;7.70
4421;BMP180;11824;51.178;13.546;2023-04-02T13:19:25;100790.00;;;7.70
4421;BMP180;11824;51.178;13.546;2023-04-02T13:21:54;100785.00;;;7.70
4421;BMP180;11824;51.178;13.546;2023-04-02T13:24:23;100774.00;;;7.60
4421;BMP180;11824;51.178;13.546;2023-04-02T13:26:54;100781.00;;;7.60
4421;BMP180;11824;51.178;13.546;2023-04-02T13:29:25;100796.00;;;7.40
4421;BMP180;11824;51.178;13.546;2023-04-02T13:31:55;100780.00;;;7.40
4421;BMP180;11824;51.178;13.546;2023-04-02T13:34:22;100780.00;;;7.30
4421;BMP180;11824;51.178;13.546;2023-04-02T13:36:50;100786.00;;;7.30
4421;BMP180;11824;51.178;13.546;2023-04-02T13:39:17;100794.00;;;7.20
4421;BMP180;11824;51.178;13.546;2023-04-02T13:41:49;100793.00;;;7.20
4421;BMP180;11824;51.178;13.546;2023-04-02T13:44:22;100796.00;;;7.20
4421;BMP180;11824;51.178;13.546;2023-04-02T13:46:50;100803.00;;;7.10
4421;BMP180;11824;51.178;13.546;2023-04-02T13:49:19;100814.00;;;7.10
4421;BMP180;11824;51.178;13.546;2023-04-02T13:51:48;100806.00;;;7.00
4421;BMP180;11824;51.178;13.546;2023-04-02T13:54:22;100824.00;;;6.90
4421;BMP180;11824;51.178;13.546;2023-04-02T13:56:50;100807.00;;;6.90
4421;BMP180;11824;51.178;13.546;2023-04-02T13:59:18;100817.00;;;6.80
4421;BMP180;11824;51.178;13.546;2023-04-02T14:01:47;100813.00;;;6.70
4421;BMP180;11824;51.178;13.546;2023-04-02T14:04:19;100829.00;;;6.70
4421;BMP180;11824;51.178;13.546;2023-04-02T14:07:05;100827.00;;;6.60
4421;BMP180;11824;51.178;13.546;2023-04-02T14:09:43;100821.00;;;6.60
4421;BMP180;11824;51.178;13.546;2023-04-02T14:12:21;100844.00;;;6.60
4421;BMP180;11824;51.178;13.546;2023-04-02T14:15:13;100831.00;;;6.50
4421;BMP180;11824;51.178;13.546;2023-04-02T14:17:54;100834.00;;;6.50
4421;BMP180;11824;51.178;13.546;2023-04-02T14:20:36;100851.00;;;6.60
4421;BMP180;11824;51.178;13.546;2023-04-02T14:23:29;100849.00;;;6.50
4421;BMP180;11824;51.178;13.546;2023-04-02T14:26:06;100844.00;;;6.50
4421;BMP180;11824;51.178;13.546;2023-04-02T14:28:44;100859.00;;;6.50
4421;BMP180;11824;51.178;13.546;2023-04-02T14:31:20;100848.00;;;6.50
4421;BMP180;11824;51.178;13.546;2023-04-02T14:33:55;100848.00;;;6.50
4421;BMP180;11824;51.178;13.546;2023-04-02T14:36:32;100849.00;;;6.50
4421;BMP180;11824;51.178;13.546;2023-04-02T14:39:07;100859.00;;;6.50
4421;BMP180;11824;51.178;13.546;2023-04-02T14:41:41;100871.00;;;6.40
4421;BMP180;11824;51.178;13.546;2023-04-02T14:44:12;100862.00;;;6.40
4421;BMP180;11824;51.178;13.546;2023-04-02T14:46:41;100865.00;;;6.40
4421;BMP180;11824;51.178;13.546;2023-04-02T14:49:21;100870.00;;;6.50
4421;BMP180;11824;51.178;13.546;2023-04-02T14:51:52;100869.00;;;6.40
4421;BMP180;11824;51.178;13.546;2023-04-02T14:54:29;100865.00;;;6.40
4421;BMP180;11824;51.178;13.546;2023-04-02T14:57:02;100865.00;;;6.40
4421;BMP180;11824;51.178;13.546;2023-04-02T14:59:33;100869.00;;;6.40